Portada
METAR-TAF:

METAR-TAF

Aeroports :

Braunschweig, Alemanya

latitud: 52-18N, longitud: 010-27E, altitud: 81 m

Observació

L'informe es va fer fa 2 hores i 14 minuts, a les 20:50 UTC
Vent 12 kt del Oest
Temperatura 3°C
Humitat 87%
Pressió 1001 hPa
Visibilitat 10 km o més
Escasses núvols a una alçada de 800 ft
Núvols disperses a una alçada de 1000 ft
Cel ennuvolat a una alçada de 1400 ft

METAR: EDVE 262050Z 27012KT 9999 FEW008 SCT010 BKN014 03/01 Q1001

Hora: 00:04 (23:04 UTC)

Pronòstic

L'informe es va fer fa 6 hores i 4 minuts, a les 17:00 UTC
Pronòstic vàlid del 26 a les 18 UTC al 26 a les 21 UTC
Vent 9 kt del Oest
Visibilitat 10 km o més
Cel ennuvolat a una alçada de 2500 ft
Probabilitat 30% :
Temporalment
l' 26 a les 18 UTC al 26 a les 21 UTC
Visibilitat: 4500 m
Cel ennuvolat a una alçada de 1400 ft, Cumulonimbus.
xàfecs de pluja, Calamarsa petit o neu granulada

TAF: EDVE 261700Z 2618/2621 27009KT 9999 BKN025 PROB30 TEMPO 2618/2621 4500 SHRAGS BKN014CB

Observacions i pronòstics meteorològics de més de 4000 aeroports (METAR i TAF).

Les estacions disponibles són els punts grocs i vermells al mapa.

Posi el ratolí al punt desitjat per veure el nom de l'estació.

Feu clic per veure les observacions i els pronòstics meteorològics.

Per canviar el mapa: feu clic els botons verds amb una creu de color negre per apropar; al botó verd amb un guió per allunyar la imatge; o en les fletxes verdes per a mapes adjacents.


METAR-TAF: